createdAt,value
2022-10-09T00:01:40.188Z,8.04
2022-10-09T00:04:09.505Z,8.03
2022-10-09T00:06:38.441Z,8.01
2022-10-09T00:09:07.421Z,7.98
2022-10-09T00:11:36.278Z,7.95
2022-10-09T00:14:06.105Z,7.92
2022-10-09T00:16:35.156Z,7.88
2022-10-09T00:19:04.671Z,7.85
2022-10-09T00:21:35.660Z,7.79
2022-10-09T00:24:06.030Z,7.74
2022-10-09T00:26:34.846Z,7.71
2022-10-09T00:29:04.895Z,7.66
2022-10-09T00:31:34.862Z,7.65
2022-10-09T00:34:04.985Z,7.67
2022-10-09T00:36:33.967Z,7.64
2022-10-09T00:39:04.381Z,7.59
2022-10-09T00:41:35.846Z,7.53
2022-10-09T00:44:49.201Z,7.47
2022-10-09T00:47:27.090Z,7.39
2022-10-09T00:50:07.501Z,7.34
2022-10-09T00:52:38.456Z,7.27
2022-10-09T00:55:09.692Z,7.21
2022-10-09T00:57:40.987Z,7.12
2022-10-09T01:00:13.190Z,7.07
2022-10-09T01:02:43.049Z,7.04
2022-10-09T01:05:13.957Z,7.03
2022-10-09T01:07:49.009Z,7.04
2022-10-09T01:10:40.347Z,7.04
2022-10-09T01:13:27.768Z,7.03
2022-10-09T01:16:05.382Z,6.99
2022-10-09T01:18:54.912Z,6.96
2022-10-09T01:21:59.758Z,6.95
2022-10-09T01:24:34.972Z,6.94
2022-10-09T01:27:15.116Z,6.96
2022-10-09T01:29:51.471Z,6.99
2022-10-09T01:32:28.787Z,7.04
2022-10-09T01:35:01.107Z,7.09
2022-10-09T01:37:33.100Z,7.12
2022-10-09T01:40:05.053Z,7.11
2022-10-09T01:42:36.913Z,7.10
2022-10-09T01:45:07.616Z,7.09
2022-10-09T01:47:38.439Z,7.07
2022-10-09T01:50:28.159Z,7.06
2022-10-09T01:53:07.315Z,7.04
2022-10-09T01:55:45.208Z,7.01
2022-10-09T01:58:35.184Z,6.99
2022-10-09T02:01:10.332Z,6.98
2022-10-09T02:03:43.447Z,6.94
2022-10-09T02:06:15.617Z,6.89
2022-10-09T02:08:47.806Z,6.85
2022-10-09T02:11:18.365Z,6.81
2022-10-09T02:13:53.848Z,6.79
2022-10-09T02:16:30.611Z,6.77
2022-10-09T02:19:30.125Z,6.75
2022-10-09T02:22:07.781Z,6.74
2022-10-09T02:24:39.608Z,6.72
2022-10-09T02:27:11.209Z,6.70
2022-10-09T02:29:45.760Z,6.69
2022-10-09T02:32:15.501Z,6.67
2022-10-09T02:34:45.089Z,6.63
2022-10-09T02:37:16.332Z,6.61
2022-10-09T02:39:46.755Z,6.59
2022-10-09T02:42:16.806Z,6.57
2022-10-09T02:44:46.109Z,6.52
2022-10-09T02:47:15.669Z,6.47
2022-10-09T02:49:45.183Z,6.42
2022-10-09T02:52:14.703Z,6.37
2022-10-09T02:54:44.829Z,6.32
2022-10-09T02:57:15.154Z,6.27
2022-10-09T02:59:44.336Z,6.23
2022-10-09T03:02:15.886Z,6.19
2022-10-09T03:04:47.045Z,6.16
2022-10-09T03:07:17.608Z,6.14
2022-10-09T03:09:48.054Z,6.13
2022-10-09T03:12:22.542Z,6.12
2022-10-09T03:14:52.613Z,6.13
2022-10-09T03:17:22.670Z,6.15
2022-10-09T03:19:52.436Z,6.17
2022-10-09T03:22:21.747Z,6.19
2022-10-09T03:24:50.772Z,6.21
2022-10-09T03:27:19.858Z,6.23
2022-10-09T03:29:49.935Z,6.23
2022-10-09T03:32:18.945Z,6.26
2022-10-09T03:34:48.886Z,6.29
2022-10-09T03:37:18.803Z,6.32
2022-10-09T03:39:48.425Z,6.34
2022-10-09T03:42:17.771Z,6.36
2022-10-09T03:44:47.777Z,6.39
2022-10-09T03:47:17.009Z,6.42
2022-10-09T03:49:46.201Z,6.44
2022-10-09T03:52:15.090Z,6.46
2022-10-09T03:54:44.201Z,6.49
2022-10-09T03:57:13.415Z,6.52
2022-10-09T03:59:42.478Z,6.57
2022-10-09T04:02:11.916Z,6.60
2022-10-09T04:04:40.664Z,6.63
2022-10-09T04:07:09.566Z,6.65
2022-10-09T04:09:38.585Z,6.68
2022-10-09T04:12:08.101Z,6.72
2022-10-09T04:14:37.923Z,6.73
2022-10-09T04:17:06.541Z,6.70
2022-10-09T04:19:35.538Z,6.69
2022-10-09T04:22:04.559Z,6.62
2022-10-09T04:24:33.465Z,6.56
2022-10-09T04:27:02.185Z,6.51
2022-10-09T04:29:31.331Z,6.49
2022-10-09T04:32:00.327Z,6.49
2022-10-09T04:34:29.195Z,6.49
2022-10-09T04:36:57.755Z,6.49
2022-10-09T04:39:27.754Z,6.50
2022-10-09T04:41:56.556Z,6.53
2022-10-09T04:44:25.741Z,6.58
2022-10-09T04:46:54.587Z,6.64
2022-10-09T04:49:23.211Z,6.69
2022-10-09T04:51:51.824Z,6.75
2022-10-09T04:54:20.352Z,6.81
2022-10-09T04:56:49.093Z,6.88
2022-10-09T04:59:17.844Z,6.94
2022-10-09T05:01:46.566Z,7.00
2022-10-09T05:04:15.593Z,7.07
2022-10-09T05:06:44.104Z,7.14
2022-10-09T05:09:12.854Z,7.21
2022-10-09T05:11:42.799Z,7.28
2022-10-09T05:14:12.131Z,7.32
2022-10-09T05:17:01.062Z,7.40
2022-10-09T05:19:29.642Z,7.49
2022-10-09T05:22:01.130Z,7.55
2022-10-09T05:24:29.808Z,7.63
2022-10-09T05:26:58.682Z,7.68
2022-10-09T05:29:27.238Z,7.72
2022-10-09T05:31:55.779Z,7.75
2022-10-09T05:34:24.618Z,7.78
2022-10-09T05:36:53.067Z,7.81
2022-10-09T05:39:21.624Z,7.83
2022-10-09T05:41:50.122Z,7.82
2022-10-09T05:44:18.603Z,7.79
2022-10-09T05:46:47.121Z,7.79
2022-10-09T05:49:15.958Z,7.83
2022-10-09T05:51:44.461Z,7.90
2022-10-09T05:54:18.344Z,7.95
2022-10-09T05:56:47.028Z,8.01
2022-10-09T05:59:20.084Z,8.06
2022-10-09T06:01:51.762Z,8.13
2022-10-09T06:04:24.467Z,8.17
2022-10-09T06:06:53.158Z,8.26
2022-10-09T06:09:25.755Z,8.38
2022-10-09T06:11:55.286Z,8.49
2022-10-09T06:14:25.408Z,8.57
2022-10-09T06:16:54.077Z,8.63
2022-10-09T06:19:23.281Z,8.67
2022-10-09T06:21:52.339Z,8.70
2022-10-09T06:24:29.049Z,8.74
2022-10-09T06:26:58.937Z,8.85
2022-10-09T06:29:27.636Z,8.99
2022-10-09T06:31:56.420Z,9.11
2022-10-09T06:34:24.903Z,9.24
2022-10-09T06:36:53.451Z,9.31
2022-10-09T06:39:23.270Z,9.43
2022-10-09T06:41:51.810Z,9.69
2022-10-09T06:44:46.772Z,9.88
2022-10-09T06:47:17.059Z,9.95
2022-10-09T06:49:45.437Z,9.97
2022-10-09T06:52:14.942Z,9.99
2022-10-09T06:54:43.349Z,10.14
2022-10-09T06:57:12.012Z,10.27
2022-10-09T06:59:40.485Z,10.41
2022-10-09T07:02:09.589Z,10.56
2022-10-09T07:04:38.017Z,10.59
2022-10-09T07:07:06.651Z,10.59
2022-10-09T07:09:35.169Z,10.58
2022-10-09T07:12:03.609Z,10.48
2022-10-09T07:14:32.090Z,10.52
2022-10-09T07:17:00.591Z,10.53
2022-10-09T07:19:28.965Z,10.51
2022-10-09T07:21:57.432Z,10.49
2022-10-09T07:24:26.135Z,10.49
2022-10-09T07:26:57.471Z,10.56
2022-10-09T07:29:26.010Z,10.57
2022-10-09T07:31:54.454Z,10.63
2022-10-09T07:34:23.521Z,10.73
2022-10-09T07:36:52.005Z,10.95
2022-10-09T07:39:20.754Z,11.17
2022-10-09T07:41:52.652Z,11.29
2022-10-09T07:44:21.154Z,11.27
2022-10-09T07:46:51.778Z,11.37
2022-10-09T07:49:20.356Z,11.50
2022-10-09T07:51:48.914Z,11.54
2022-10-09T07:54:17.427Z,11.66
2022-10-09T07:56:45.888Z,11.70
2022-10-09T07:59:16.722Z,11.71
2022-10-09T08:01:45.296Z,11.76
2022-10-09T08:04:13.813Z,11.78
2022-10-09T08:06:42.173Z,11.74
2022-10-09T08:09:10.774Z,11.89
2022-10-09T08:11:40.967Z,12.21
2022-10-09T08:14:18.799Z,12.63
2022-10-09T08:16:48.671Z,12.95
2022-10-09T08:19:17.134Z,13.14
2022-10-09T08:21:45.937Z,13.25
2022-10-09T08:24:14.895Z,13.28
2022-10-09T08:26:44.540Z,13.37
2022-10-09T08:29:16.220Z,13.56
2022-10-09T08:31:44.756Z,13.72
2022-10-09T08:34:13.314Z,13.90
2022-10-09T08:36:41.855Z,14.00
2022-10-09T08:39:10.798Z,14.15
2022-10-09T08:41:47.072Z,14.56
2022-10-09T08:44:39.688Z,15.19
2022-10-09T08:47:11.094Z,15.96
2022-10-09T08:49:47.733Z,16.66
2022-10-09T08:52:46.720Z,17.02
2022-10-09T08:55:25.634Z,17.28
2022-10-09T08:57:56.710Z,17.68
2022-10-09T09:00:29.584Z,17.91
2022-10-09T09:03:07.380Z,17.56
2022-10-09T09:05:38.593Z,17.35
2022-10-09T09:08:25.303Z,18.04
2022-10-09T09:11:21.277Z,18.17
2022-10-09T09:14:19.865Z,19.33
2022-10-09T09:17:04.631Z,20.61
2022-10-09T09:19:59.245Z,20.80
2022-10-09T09:22:28.503Z,21.26
2022-10-09T09:24:59.551Z,21.56
2022-10-09T09:27:34.511Z,21.60
2022-10-09T09:30:16.259Z,22.26
2022-10-09T09:33:01.295Z,22.75
2022-10-09T09:35:36.848Z,23.46
2022-10-09T09:38:05.319Z,23.85
2022-10-09T09:40:37.261Z,24.14
2022-10-09T09:43:16.408Z,24.20
2022-10-09T09:45:46.372Z,23.27
2022-10-09T09:48:40.893Z,24.23
2022-10-09T09:51:30.111Z,24.66
2022-10-09T09:54:06.535Z,24.27
2022-10-09T09:57:10.603Z,24.64
2022-10-09T09:59:36.679Z,24.06
2022-10-09T10:02:21.593Z,24.31
2022-10-09T10:05:09.484Z,24.34
2022-10-09T10:07:39.318Z,24.56
2022-10-09T10:10:19.794Z,24.96
2022-10-09T10:12:58.301Z,25.36
2022-10-09T10:15:28.064Z,25.24
2022-10-09T10:18:07.160Z,25.44
2022-10-09T10:20:44.397Z,24.64
2022-10-09T10:23:23.830Z,24.18
2022-10-09T10:25:58.397Z,23.71
2022-10-09T10:28:36.504Z,23.73
2022-10-09T10:31:11.429Z,23.90
2022-10-09T10:33:44.117Z,23.18
2022-10-09T10:36:12.654Z,22.68
2022-10-09T10:38:47.073Z,21.99
2022-10-09T10:41:31.017Z,21.68
2022-10-09T10:44:08.206Z,21.14
2022-10-09T10:47:13.658Z,20.76
2022-10-09T10:49:42.301Z,20.35
2022-10-09T10:52:44.147Z,19.77
2022-10-09T10:55:20.114Z,19.95
2022-10-09T10:58:05.827Z,20.25
2022-10-09T11:00:39.040Z,19.99
2022-10-09T11:03:25.583Z,19.91
2022-10-09T11:06:21.556Z,20.61
2022-10-09T11:09:06.060Z,21.25
2022-10-09T11:11:38.254Z,22.35
2022-10-09T11:14:52.642Z,23.03
2022-10-09T11:17:49.072Z,23.74
2022-10-09T11:20:46.805Z,23.85
2022-10-09T11:23:44.485Z,24.47
2022-10-09T11:26:41.784Z,25.21
2022-10-09T11:29:55.102Z,24.56
2022-10-09T11:32:27.812Z,24.76
2022-10-09T11:35:08.569Z,25.14
2022-10-09T11:37:40.116Z,25.68
2022-10-09T11:40:23.230Z,26.14
2022-10-09T11:43:25.907Z,27.23
2022-10-09T11:46:28.667Z,28.00
2022-10-09T11:49:21.213Z,28.74
2022-10-09T11:52:11.084Z,28.88
2022-10-09T11:54:41.151Z,29.16
2022-10-09T11:57:14.314Z,29.20
2022-10-09T11:59:43.820Z,28.64
2022-10-09T12:02:21.443Z,28.18
2022-10-09T12:04:54.989Z,28.53
2022-10-09T12:07:32.466Z,29.39
2022-10-09T12:10:27.763Z,29.61
2022-10-09T12:13:02.038Z,30.06
2022-10-09T12:15:41.202Z,30.43
2022-10-09T12:18:30.319Z,30.79
2022-10-09T12:21:02.561Z,30.62
2022-10-09T12:23:35.442Z,30.62
2022-10-09T12:26:05.956Z,30.41
2022-10-09T12:28:38.775Z,29.63
2022-10-09T12:31:22.657Z,30.00
2022-10-09T12:34:06.489Z,29.68
2022-10-09T12:36:34.963Z,29.47
2022-10-09T12:39:21.362Z,29.12
2022-10-09T12:41:57.768Z,28.66
2022-10-09T12:44:33.189Z,27.87
2022-10-09T12:47:08.391Z,26.68
2022-10-09T12:49:37.124Z,26.49
2022-10-09T12:52:16.085Z,26.90
2022-10-09T12:54:44.976Z,27.44
2022-10-09T12:57:15.980Z,27.67
2022-10-09T12:59:47.130Z,28.13
2022-10-09T13:02:16.653Z,28.07
2022-10-09T13:04:57.324Z,28.35
2022-10-09T13:07:29.346Z,28.61
2022-10-09T13:10:08.659Z,27.40
2022-10-09T13:12:39.745Z,27.37
2022-10-09T13:15:29.044Z,26.79
2022-10-09T13:17:57.580Z,26.28
2022-10-09T13:20:31.054Z,26.10
2022-10-09T13:23:05.913Z,26.22
2022-10-09T13:25:49.210Z,26.19
2022-10-09T13:28:21.388Z,26.98
2022-10-09T13:30:50.559Z,27.70
2022-10-09T13:33:19.090Z,28.48
2022-10-09T13:35:47.504Z,28.42
2022-10-09T13:38:17.611Z,27.48
2022-10-09T13:40:47.858Z,27.00
2022-10-09T13:43:23.982Z,26.40
2022-10-09T13:45:53.895Z,25.64
2022-10-09T13:48:22.312Z,25.22
2022-10-09T13:50:50.713Z,24.95
2022-10-09T13:53:19.099Z,24.00
2022-10-09T13:55:47.492Z,24.25
2022-10-09T13:58:15.948Z,24.51
2022-10-09T14:00:46.051Z,24.21
2022-10-09T14:03:14.905Z,24.61
2022-10-09T14:05:45.928Z,24.60
2022-10-09T14:08:14.365Z,24.49
2022-10-09T14:10:43.994Z,24.88
2022-10-09T14:13:14.688Z,25.04
2022-10-09T14:15:43.254Z,25.16
2022-10-09T14:18:11.707Z,25.25
2022-10-09T14:20:40.192Z,25.55
2022-10-09T14:23:09.667Z,25.58
2022-10-09T14:25:38.071Z,25.06
2022-10-09T14:28:07.295Z,25.03
2022-10-09T14:30:39.652Z,25.32
2022-10-09T14:33:08.411Z,25.55
2022-10-09T14:35:37.089Z,25.51
2022-10-09T14:38:05.640Z,25.27
2022-10-09T14:40:34.105Z,25.13
2022-10-09T14:43:02.635Z,24.77
2022-10-09T14:45:33.192Z,24.43
2022-10-09T14:48:01.743Z,24.06
2022-10-09T14:50:30.779Z,23.82
2022-10-09T14:52:59.887Z,23.68
2022-10-09T14:55:28.455Z,23.53
2022-10-09T14:57:56.936Z,23.38
2022-10-09T15:00:25.386Z,23.28
2022-10-09T15:02:55.210Z,23.01
2022-10-09T15:05:26.203Z,22.60
2022-10-09T15:07:55.324Z,22.18
2022-10-09T15:10:23.889Z,21.82
2022-10-09T15:12:52.491Z,21.42
2022-10-09T15:15:20.877Z,21.00
2022-10-09T15:17:49.847Z,20.83
2022-10-09T15:20:18.647Z,20.71
2022-10-09T15:22:47.366Z,20.55
2022-10-09T15:25:16.984Z,20.37
2022-10-09T15:27:45.375Z,19.98
2022-10-09T15:30:13.956Z,19.56
2022-10-09T15:32:42.349Z,18.99
2022-10-09T15:35:10.790Z,18.53
2022-10-09T15:37:39.272Z,18.09
2022-10-09T15:40:08.241Z,17.64
2022-10-09T15:42:37.479Z,17.27
2022-10-09T15:45:06.814Z,16.94
2022-10-09T15:47:50.448Z,16.64
2022-10-09T15:50:20.078Z,16.33
2022-10-09T15:52:49.034Z,16.00
2022-10-09T15:55:17.745Z,15.73
2022-10-09T15:57:46.253Z,15.50
2022-10-09T16:00:16.764Z,15.25
2022-10-09T16:02:45.165Z,15.06
2022-10-09T16:05:13.590Z,14.90
2022-10-09T16:07:42.148Z,14.70
2022-10-09T16:10:10.828Z,14.56
2022-10-09T16:12:39.525Z,14.43
2022-10-09T16:15:08.459Z,14.28
2022-10-09T16:17:36.948Z,14.15
2022-10-09T16:20:06.323Z,14.02
2022-10-09T16:22:34.966Z,13.89
2022-10-09T16:25:04.140Z,13.77
2022-10-09T16:27:32.518Z,13.70
2022-10-09T16:30:00.994Z,13.63
2022-10-09T16:32:31.053Z,13.58
2022-10-09T16:34:59.590Z,13.54
2022-10-09T16:37:27.987Z,13.47
2022-10-09T16:39:56.441Z,13.40
2022-10-09T16:42:24.932Z,13.34
2022-10-09T16:44:53.564Z,13.28
2022-10-09T16:47:21.919Z,13.22
2022-10-09T16:49:50.400Z,13.15
2022-10-09T16:52:18.771Z,13.06
2022-10-09T16:54:50.333Z,12.95
2022-10-09T16:57:18.888Z,12.85
2022-10-09T16:59:48.613Z,12.75
2022-10-09T17:02:17.216Z,12.67
2022-10-09T17:04:46.402Z,12.61
2022-10-09T17:07:15.606Z,12.55
2022-10-09T17:09:44.025Z,12.51
2022-10-09T17:12:13.594Z,12.47
2022-10-09T17:14:42.312Z,12.46
2022-10-09T17:17:12.548Z,12.45
2022-10-09T17:19:41.511Z,12.43
2022-10-09T17:22:10.281Z,12.38
2022-10-09T17:24:38.949Z,12.36
2022-10-09T17:27:10.117Z,12.34
2022-10-09T17:29:38.705Z,12.31
2022-10-09T17:32:09.403Z,12.27
2022-10-09T17:34:43.247Z,12.20
2022-10-09T17:37:12.798Z,12.10
2022-10-09T17:39:44.172Z,11.98
2022-10-09T17:42:14.806Z,11.80
2022-10-09T17:44:43.265Z,11.67
2022-10-09T17:47:11.850Z,11.60
2022-10-09T17:49:40.841Z,11.53
2022-10-09T17:52:09.163Z,11.47
2022-10-09T17:54:37.604Z,11.43
2022-10-09T17:57:07.317Z,11.41
2022-10-09T17:59:35.847Z,11.40
2022-10-09T18:02:05.503Z,11.38
2022-10-09T18:04:33.893Z,11.37
2022-10-09T18:07:02.537Z,11.34
2022-10-09T18:09:30.909Z,11.27
2022-10-09T18:11:59.275Z,11.19
2022-10-09T18:14:27.597Z,11.14
2022-10-09T18:16:56.561Z,11.09
2022-10-09T18:19:25.012Z,11.03
2022-10-09T18:21:53.453Z,10.97
2022-10-09T18:24:21.960Z,10.90
2022-10-09T18:26:53.797Z,10.85
2022-10-09T18:29:22.649Z,10.79
2022-10-09T18:31:55.875Z,10.74
2022-10-09T18:34:24.260Z,10.68
2022-10-09T18:36:53.028Z,10.64
2022-10-09T18:39:21.924Z,10.60
2022-10-09T18:41:50.593Z,10.56
2022-10-09T18:44:21.794Z,10.51
2022-10-09T18:46:59.945Z,10.47
2022-10-09T18:49:42.473Z,10.42
2022-10-09T18:52:15.219Z,10.38
2022-10-09T18:54:44.687Z,10.34
2022-10-09T18:57:13.018Z,10.26
2022-10-09T18:59:42.466Z,10.17
2022-10-09T19:02:10.761Z,10.11
2022-10-09T19:04:39.105Z,10.06
2022-10-09T19:07:07.474Z,10.03
2022-10-09T19:09:36.412Z,9.98
2022-10-09T19:12:04.841Z,9.91
2022-10-09T19:14:34.864Z,9.85
2022-10-09T19:17:03.029Z,9.80
2022-10-09T19:19:31.484Z,9.77
2022-10-09T19:22:00.113Z,9.73
2022-10-09T19:24:34.068Z,9.72
2022-10-09T19:27:03.276Z,9.68
2022-10-09T19:29:31.788Z,9.64
2022-10-09T19:32:00.167Z,9.58
2022-10-09T19:34:29.965Z,9.52
2022-10-09T19:36:58.562Z,9.44
2022-10-09T19:39:28.631Z,9.37
2022-10-09T19:41:57.096Z,9.29
2022-10-09T19:44:25.647Z,9.19
2022-10-09T19:46:54.182Z,9.13
2022-10-09T19:49:22.808Z,9.12
2022-10-09T19:51:51.388Z,9.11
2022-10-09T19:54:20.245Z,9.11
2022-10-09T19:56:48.882Z,9.08
2022-10-09T19:59:17.348Z,9.07
2022-10-09T20:01:45.795Z,9.05
2022-10-09T20:04:14.228Z,9.02
2022-10-09T20:06:43.140Z,8.98
2022-10-09T20:09:12.501Z,8.97
2022-10-09T20:11:41.310Z,8.96
2022-10-09T20:14:10.099Z,8.94
2022-10-09T20:16:40.295Z,8.92
2022-10-09T20:19:08.942Z,8.93
2022-10-09T20:21:37.410Z,8.92
2022-10-09T20:24:06.581Z,8.89
2022-10-09T20:26:37.643Z,8.87
2022-10-09T20:29:08.569Z,8.83
2022-10-09T20:31:37.442Z,8.78
2022-10-09T20:34:06.064Z,8.74
2022-10-09T20:36:37.388Z,8.69
2022-10-09T20:39:10.728Z,8.65
2022-10-09T20:41:40.660Z,8.59
2022-10-09T20:44:09.742Z,8.55
2022-10-09T20:46:39.778Z,8.49
2022-10-09T20:49:11.431Z,8.39
2022-10-09T20:51:40.881Z,8.31
2022-10-09T20:54:18.121Z,8.28
2022-10-09T20:56:48.197Z,8.25
2022-10-09T20:59:18.391Z,8.22
2022-10-09T21:01:47.020Z,8.19
2022-10-09T21:04:15.637Z,8.13
2022-10-09T21:06:44.835Z,8.09
2022-10-09T21:09:13.741Z,8.03
2022-10-09T21:11:45.899Z,7.96
2022-10-09T21:14:14.610Z,7.90
2022-10-09T21:16:43.494Z,7.87
2022-10-09T21:19:12.475Z,7.89
2022-10-09T21:21:41.447Z,7.85
2022-10-09T21:24:10.156Z,7.80
2022-10-09T21:26:39.765Z,7.76
2022-10-09T21:29:08.609Z,7.73
2022-10-09T21:31:39.110Z,7.68
2022-10-09T21:34:07.882Z,7.63
2022-10-09T21:37:08.948Z,7.60
2022-10-09T21:39:36.802Z,7.54
2022-10-09T21:42:05.506Z,7.44
2022-10-09T21:44:34.389Z,7.36
2022-10-09T21:47:02.969Z,7.34
2022-10-09T21:49:31.567Z,7.25
2022-10-09T21:52:00.845Z,7.20
2022-10-09T21:54:29.605Z,7.13
2022-10-09T21:56:58.617Z,7.11
2022-10-09T21:59:28.025Z,7.13
2022-10-09T22:01:57.574Z,7.11
2022-10-09T22:04:26.606Z,7.07
2022-10-09T22:06:55.605Z,7.03
2022-10-09T22:09:24.306Z,6.95
2022-10-09T22:11:53.111Z,6.88
2022-10-09T22:14:22.260Z,6.85
2022-10-09T22:16:51.047Z,6.83
2022-10-09T22:19:20.481Z,6.82
2022-10-09T22:21:50.203Z,6.81
2022-10-09T22:24:19.258Z,6.79
2022-10-09T22:26:48.280Z,6.78
2022-10-09T22:29:17.361Z,6.78
2022-10-09T22:31:46.845Z,6.79
2022-10-09T22:34:16.548Z,6.81
2022-10-09T22:36:46.134Z,6.86
2022-10-09T22:39:14.741Z,6.92
2022-10-09T22:41:43.297Z,6.98
2022-10-09T22:44:13.212Z,7.01
2022-10-09T22:46:44.118Z,7.00
2022-10-09T22:49:17.278Z,7.01
2022-10-09T22:51:46.652Z,7.02
2022-10-09T22:54:17.273Z,7.08
2022-10-09T22:56:47.357Z,7.12
2022-10-09T22:59:18.686Z,7.12
2022-10-09T23:01:56.835Z,7.15
2022-10-09T23:04:26.344Z,7.15
2022-10-09T23:06:58.777Z,7.16
2022-10-09T23:09:31.152Z,7.17
2022-10-09T23:12:00.738Z,7.19
2022-10-09T23:14:29.714Z,7.21
2022-10-09T23:16:59.583Z,7.24
2022-10-09T23:19:28.944Z,7.30
2022-10-09T23:21:58.464Z,7.31
2022-10-09T23:24:28.112Z,7.30
2022-10-09T23:26:57.253Z,7.29
2022-10-09T23:29:27.019Z,7.28
2022-10-09T23:31:56.711Z,7.28
2022-10-09T23:34:25.759Z,7.28
2022-10-09T23:36:54.755Z,7.26
2022-10-09T23:39:24.917Z,7.22
2022-10-09T23:41:54.208Z,7.19
2022-10-09T23:44:23.897Z,7.17
2022-10-09T23:46:54.492Z,7.15
2022-10-09T23:49:23.734Z,7.12
2022-10-09T23:51:53.714Z,7.09
2022-10-09T23:54:23.670Z,7.07
2022-10-09T23:56:53.768Z,7.06
2022-10-09T23:59:24.097Z,7.05
